createdAt,value
2023-03-19T00:01:28.272Z,28.18
2023-03-19T00:05:28.226Z,25.99
2023-03-19T00:09:28.279Z,26.89
2023-03-19T00:13:28.194Z,30.14
2023-03-19T00:17:28.137Z,28.81
2023-03-19T00:21:30.561Z,30.47
2023-03-19T00:25:28.087Z,27.60
2023-03-19T00:29:28.048Z,25.61
2023-03-19T00:33:27.998Z,27.01
2023-03-19T00:37:28.009Z,29.36
2023-03-19T00:41:27.906Z,27.92
2023-03-19T00:45:27.894Z,27.44
2023-03-19T00:49:27.860Z,27.60
2023-03-19T00:53:28.398Z,28.97
2023-03-19T00:57:27.758Z,29.70
2023-03-19T01:01:27.846Z,28.43
2023-03-19T01:05:27.711Z,30.41
2023-03-19T01:09:27.675Z,25.92
2023-03-19T01:13:28.454Z,26.06
2023-03-19T01:17:27.653Z,26.44
2023-03-19T01:21:27.584Z,28.20
2023-03-19T01:25:27.589Z,26.17
2023-03-19T01:29:27.496Z,26.16
2023-03-19T01:33:27.912Z,29.31
2023-03-19T01:37:27.488Z,29.47
2023-03-19T01:41:27.442Z,27.38
2023-03-19T01:45:27.447Z,28.57
2023-03-19T01:49:27.351Z,33.32
2023-03-19T01:53:27.282Z,50.49
2023-03-19T01:57:27.289Z,36.74
2023-03-19T02:01:27.258Z,32.15
2023-03-19T02:05:27.175Z,32.15
2023-03-19T02:09:27.162Z,34.47
2023-03-19T02:13:27.981Z,31.93
2023-03-19T02:17:27.045Z,30.25
2023-03-19T02:21:27.002Z,27.83
2023-03-19T02:25:27.021Z,28.68
2023-03-19T02:29:27.019Z,33.53
2023-03-19T02:33:26.906Z,33.64
2023-03-19T02:37:26.950Z,32.46
2023-03-19T02:41:27.033Z,29.86
2023-03-19T02:45:27.005Z,34.46
2023-03-19T02:49:26.993Z,30.86
2023-03-19T02:53:27.564Z,28.70
2023-03-19T02:57:27.310Z,37.79
2023-03-19T03:01:27.461Z,32.37
2023-03-19T03:05:27.572Z,29.66
2023-03-19T03:09:28.466Z,28.35
2023-03-19T03:13:27.873Z,29.30
2023-03-19T03:17:28.018Z,29.74
2023-03-19T03:21:28.096Z,25.90
2023-03-19T03:25:28.074Z,28.67
2023-03-19T03:29:27.954Z,32.12
2023-03-19T03:33:27.718Z,26.84
2023-03-19T03:37:28.596Z,31.15
2023-03-19T03:41:30.432Z,36.20
2023-03-19T03:45:27.622Z,33.61
2023-03-19T03:49:27.593Z,32.17
2023-03-19T03:53:27.500Z,35.32
2023-03-19T03:57:27.576Z,29.76
2023-03-19T04:01:27.516Z,27.83
2023-03-19T04:05:27.393Z,30.24
2023-03-19T04:09:27.375Z,32.22
2023-03-19T04:13:27.574Z,29.75
2023-03-19T04:17:27.300Z,32.50
2023-03-19T04:21:28.129Z,31.49
2023-03-19T04:25:27.366Z,25.83
2023-03-19T04:29:27.150Z,28.47
2023-03-19T04:33:27.228Z,31.17
2023-03-19T04:37:27.397Z,31.63
2023-03-19T04:41:27.480Z,31.60
2023-03-19T04:45:27.546Z,31.10
2023-03-19T04:49:27.503Z,26.68
2023-03-19T04:53:27.542Z,28.99
2023-03-19T04:57:28.620Z,31.76
2023-03-19T05:01:27.760Z,31.04
2023-03-19T05:05:27.869Z,28.16
2023-03-19T05:09:27.887Z,26.57
2023-03-19T05:13:28.037Z,27.32
2023-03-19T05:17:28.144Z,31.65
2023-03-19T05:21:28.988Z,29.21
2023-03-19T05:25:28.275Z,28.80
2023-03-19T05:29:28.433Z,30.89
2023-03-19T05:33:28.418Z,27.55
2023-03-19T05:37:28.426Z,27.68
2023-03-19T05:41:28.540Z,29.03
2023-03-19T05:45:28.619Z,30.52
2023-03-19T05:49:28.702Z,29.06
2023-03-19T05:53:28.805Z,30.30
2023-03-19T05:57:28.791Z,33.15
2023-03-19T06:01:28.971Z,30.90
2023-03-19T06:05:28.941Z,29.02
2023-03-19T06:09:29.043Z,32.40
2023-03-19T06:13:29.079Z,25.30
2023-03-19T06:17:29.249Z,29.67
2023-03-19T06:21:29.392Z,28.99
2023-03-19T06:25:29.518Z,30.93
2023-03-19T06:29:29.686Z,32.99
2023-03-19T06:33:29.820Z,29.86
2023-03-19T06:37:29.931Z,27.07
2023-03-19T06:41:30.515Z,39.33
2023-03-19T06:45:30.203Z,39.48
2023-03-19T06:49:30.219Z,40.31
2023-03-19T06:53:30.334Z,41.94
2023-03-19T06:57:30.514Z,48.00
2023-03-19T07:01:34.075Z,48.00
2023-03-19T07:05:30.659Z,48.15
2023-03-19T07:09:30.694Z,41.64
2023-03-19T07:13:30.575Z,39.81
2023-03-19T07:17:31.091Z,38.51
2023-03-19T07:21:30.616Z,42.31
2023-03-19T07:25:30.547Z,51.56
2023-03-19T07:29:30.440Z,49.66
2023-03-19T07:33:30.570Z,52.10
2023-03-19T07:37:31.063Z,59.30
2023-03-19T07:41:30.989Z,56.53
2023-03-19T07:45:30.893Z,58.50
2023-03-19T07:49:30.931Z,63.60
2023-03-19T07:53:30.845Z,68.06
2023-03-19T07:57:31.021Z,65.99
2023-03-19T08:01:30.778Z,60.98
2023-03-19T08:05:33.521Z,62.37
2023-03-19T08:09:31.232Z,55.09
2023-03-19T08:13:30.648Z,52.58
2023-03-19T08:17:30.639Z,59.45
2023-03-19T08:21:31.044Z,58.73
2023-03-19T08:25:30.552Z,62.27
2023-03-19T08:29:30.479Z,60.96
2023-03-19T08:33:30.452Z,70.11
2023-03-19T08:37:30.424Z,69.82
2023-03-19T08:41:32.137Z,76.54
2023-03-19T08:45:30.371Z,78.98
2023-03-19T08:49:37.043Z,81.63
2023-03-19T08:53:30.316Z,74.57
2023-03-19T08:57:30.231Z,85.31
2023-03-19T09:01:30.284Z,88.88
2023-03-19T09:05:30.603Z,84.89
2023-03-19T09:09:30.220Z,84.25
2023-03-19T09:13:31.115Z,87.89
2023-03-19T09:17:30.091Z,91.66
2023-03-19T09:21:30.013Z,91.90
2023-03-19T09:25:29.998Z,101.66
2023-03-19T09:29:31.598Z,98.97
2023-03-19T09:33:29.997Z,96.82
2023-03-19T09:37:30.004Z,99.71
2023-03-19T09:41:29.912Z,102.20
2023-03-19T09:45:29.958Z,100.63
2023-03-19T09:49:29.827Z,109.02
2023-03-19T09:53:29.794Z,107.12
2023-03-19T09:57:29.818Z,108.51
2023-03-19T10:01:30.134Z,106.15
2023-03-19T10:05:29.732Z,109.19
2023-03-19T10:09:30.625Z,107.68
2023-03-19T10:13:30.166Z,112.64
2023-03-19T10:17:29.629Z,111.30
2023-03-19T10:21:29.581Z,106.27
2023-03-19T10:25:31.104Z,111.76
2023-03-19T10:29:29.513Z,107.77
2023-03-19T10:33:29.420Z,107.95
2023-03-19T10:37:29.444Z,104.94
2023-03-19T10:41:30.145Z,107.20
2023-03-19T10:45:29.501Z,104.93
2023-03-19T10:49:29.371Z,99.86
2023-03-19T10:53:29.665Z,97.29
2023-03-19T10:57:29.409Z,103.37
2023-03-19T11:01:32.397Z,97.23
2023-03-19T11:05:31.653Z,89.22
2023-03-19T11:09:29.145Z,97.31
2023-03-19T11:13:29.168Z,93.82
2023-03-19T11:17:29.031Z,94.36
2023-03-19T11:21:29.006Z,92.98
2023-03-19T11:25:29.011Z,96.80
2023-03-19T11:29:28.955Z,98.04
2023-03-19T11:33:28.971Z,86.03
2023-03-19T11:37:28.944Z,93.44
2023-03-19T11:41:28.809Z,95.54
2023-03-19T11:45:28.882Z,89.25
2023-03-19T11:49:28.867Z,95.27
2023-03-19T11:53:28.829Z,88.02
2023-03-19T11:57:28.807Z,82.88
2023-03-19T12:01:28.782Z,80.78
2023-03-19T12:05:28.699Z,89.75
2023-03-19T12:09:28.672Z,91.24
2023-03-19T12:13:28.651Z,92.50
2023-03-19T12:17:30.283Z,87.27
2023-03-19T12:21:28.588Z,90.50
2023-03-19T12:25:28.613Z,90.68
2023-03-19T12:29:29.153Z,82.97
2023-03-19T12:33:29.127Z,78.17
2023-03-19T12:37:28.628Z,79.82
2023-03-19T12:41:28.611Z,80.83
2023-03-19T12:45:28.566Z,85.94
2023-03-19T12:49:28.541Z,84.85
2023-03-19T12:53:28.512Z,86.57
2023-03-19T12:57:28.485Z,84.96
2023-03-19T13:01:28.685Z,86.21
2023-03-19T13:05:28.426Z,80.35
2023-03-19T13:09:28.362Z,84.85
2023-03-19T13:13:28.324Z,80.70
2023-03-19T13:17:28.303Z,84.76
2023-03-19T13:21:28.683Z,70.62
2023-03-19T13:25:28.195Z,76.00
2023-03-19T13:29:28.281Z,72.83
2023-03-19T13:33:28.337Z,70.74
2023-03-19T13:37:28.404Z,75.09
2023-03-19T13:41:28.485Z,80.49
2023-03-19T13:45:28.663Z,70.43
2023-03-19T13:49:28.732Z,70.76
2023-03-19T13:53:28.872Z,70.23
2023-03-19T13:57:29.045Z,77.65
2023-03-19T14:01:29.224Z,82.96
2023-03-19T14:05:30.358Z,78.86
2023-03-19T14:09:29.715Z,63.50
2023-03-19T14:13:29.795Z,77.34
2023-03-19T14:17:29.967Z,72.04
2023-03-19T14:21:30.667Z,71.27
2023-03-19T14:25:31.148Z,79.99
2023-03-19T14:29:30.473Z,64.14
2023-03-19T14:33:30.375Z,72.10
2023-03-19T14:37:30.347Z,68.09
2023-03-19T14:41:30.826Z,65.64
2023-03-19T14:45:30.278Z,76.50
2023-03-19T14:49:30.265Z,76.04
2023-03-19T14:53:30.245Z,70.81
2023-03-19T14:57:30.106Z,81.17
2023-03-19T15:01:30.172Z,74.03
2023-03-19T15:05:30.214Z,70.00
2023-03-19T15:09:30.434Z,67.52
2023-03-19T15:13:30.649Z,75.54
2023-03-19T15:17:30.830Z,74.85
2023-03-19T15:21:30.972Z,81.71
2023-03-19T15:25:31.080Z,73.68
2023-03-19T15:29:31.739Z,72.89
2023-03-19T15:33:39.822Z,70.47
2023-03-19T15:37:32.034Z,74.09
2023-03-19T15:41:31.689Z,69.36
2023-03-19T15:45:31.052Z,70.96
2023-03-19T15:49:31.706Z,66.43
2023-03-19T15:53:30.958Z,70.59
2023-03-19T15:57:30.852Z,73.84
2023-03-19T16:01:30.967Z,72.22
2023-03-19T16:05:30.920Z,69.93
2023-03-19T16:09:30.728Z,73.05
2023-03-19T16:13:30.757Z,62.28
2023-03-19T16:17:30.670Z,64.72
2023-03-19T16:21:30.656Z,60.87
2023-03-19T16:25:30.684Z,66.98
2023-03-19T16:29:30.713Z,52.03
2023-03-19T16:33:30.810Z,55.27
2023-03-19T16:37:30.577Z,72.49
2023-03-19T16:41:30.444Z,56.71
2023-03-19T16:45:30.491Z,44.36
2023-03-19T16:49:30.388Z,46.97
2023-03-19T16:53:30.330Z,41.15
2023-03-19T16:57:30.289Z,55.42
2023-03-19T17:01:30.314Z,51.66
2023-03-19T17:05:30.340Z,50.94
2023-03-19T17:09:31.266Z,44.60
2023-03-19T17:13:30.802Z,48.48
2023-03-19T17:17:30.387Z,53.74
2023-03-19T17:21:30.499Z,52.40
2023-03-19T17:25:30.706Z,60.77
2023-03-19T17:29:30.698Z,52.63
2023-03-19T17:33:31.275Z,47.80
2023-03-19T17:37:30.978Z,49.66
2023-03-19T17:41:32.782Z,55.10
2023-03-19T17:45:31.121Z,46.23
2023-03-19T17:49:31.326Z,49.86
2023-03-19T17:53:31.413Z,42.76
2023-03-19T17:57:31.520Z,43.81
2023-03-19T18:01:31.676Z,45.47
2023-03-19T18:05:31.804Z,45.10
2023-03-19T18:09:31.947Z,40.63
2023-03-19T18:13:32.174Z,41.15
2023-03-19T18:17:32.329Z,30.00
2023-03-19T18:21:32.456Z,36.56
2023-03-19T18:25:32.633Z,36.66
2023-03-19T18:29:32.861Z,31.66
2023-03-19T18:33:33.019Z,25.79
2023-03-19T18:37:33.161Z,33.81
2023-03-19T18:41:33.303Z,36.93
2023-03-19T18:45:33.575Z,36.83
2023-03-19T18:49:33.659Z,35.20
2023-03-19T18:53:33.901Z,37.47
2023-03-19T18:57:34.150Z,34.57
2023-03-19T19:01:34.396Z,28.86
2023-03-19T19:05:34.805Z,27.85
2023-03-19T19:09:34.913Z,32.49
2023-03-19T19:13:46.275Z,32.02
2023-03-19T19:17:36.416Z,31.57
2023-03-19T19:21:34.750Z,27.23
2023-03-19T19:25:34.835Z,35.35
2023-03-19T19:29:34.842Z,29.29
2023-03-19T19:33:34.732Z,33.72
2023-03-19T19:37:34.908Z,26.14
2023-03-19T19:41:35.136Z,25.00
2023-03-19T19:45:35.411Z,36.66
2023-03-19T19:49:35.300Z,29.25
2023-03-19T19:53:35.323Z,31.78
2023-03-19T19:57:35.267Z,32.00
2023-03-19T20:01:35.394Z,30.31
2023-03-19T20:05:35.365Z,34.06
2023-03-19T20:09:35.181Z,30.29
2023-03-19T20:13:35.092Z,31.70
2023-03-19T20:17:35.047Z,36.64
2023-03-19T20:21:35.017Z,31.63
2023-03-19T20:25:35.219Z,38.03
2023-03-19T20:29:34.973Z,37.38
2023-03-19T20:33:34.952Z,33.89
2023-03-19T20:37:35.842Z,33.61
2023-03-19T20:41:34.880Z,27.42
2023-03-19T20:45:35.264Z,26.95
2023-03-19T20:49:34.803Z,26.71
2023-03-19T20:53:34.891Z,34.77
2023-03-19T20:57:34.864Z,33.73
2023-03-19T21:01:34.876Z,30.60
2023-03-19T21:05:35.467Z,28.40
2023-03-19T21:09:35.002Z,30.10
2023-03-19T21:13:35.347Z,29.15
2023-03-19T21:17:34.951Z,27.50
2023-03-19T21:21:35.002Z,31.20
2023-03-19T21:25:36.178Z,29.09
2023-03-19T21:29:34.905Z,29.52
2023-03-19T21:33:34.809Z,28.01
2023-03-19T21:37:34.808Z,31.57
2023-03-19T21:41:34.776Z,30.39
2023-03-19T21:45:35.224Z,29.12
2023-03-19T21:49:35.427Z,38.04
2023-03-19T21:53:35.405Z,37.38
2023-03-19T21:57:35.686Z,29.05
2023-03-19T22:01:35.961Z,30.44
2023-03-19T22:05:37.160Z,27.33
2023-03-19T22:09:36.372Z,27.46
2023-03-19T22:13:36.391Z,27.62
2023-03-19T22:17:36.177Z,29.49
2023-03-19T22:21:36.130Z,28.92
2023-03-19T22:25:36.744Z,25.95
2023-03-19T22:29:36.078Z,27.15
2023-03-19T22:33:37.017Z,29.07
2023-03-19T22:37:36.166Z,31.33
2023-03-19T22:41:36.490Z,27.13
2023-03-19T22:45:36.638Z,30.82
2023-03-19T22:49:36.190Z,29.61
2023-03-19T22:53:36.099Z,30.48
2023-03-19T22:57:36.125Z,28.63
2023-03-19T23:01:36.968Z,27.17
2023-03-19T23:05:38.857Z,29.96
2023-03-19T23:09:36.428Z,28.44
2023-03-19T23:13:35.927Z,30.04
2023-03-19T23:17:35.946Z,28.61
2023-03-19T23:21:35.975Z,27.11
2023-03-19T23:25:35.990Z,33.99
2023-03-19T23:29:35.700Z,46.87
2023-03-19T23:33:35.719Z,53.81
2023-03-19T23:37:35.835Z,68.57
2023-03-19T23:41:36.028Z,64.13
2023-03-19T23:45:36.654Z,69.63
2023-03-19T23:49:36.433Z,77.57
2023-03-19T23:53:36.371Z,81.40
2023-03-19T23:57:36.404Z,76.47
